Time;durP1;ratioP1;P1;durP2;ratioP2;P2;SDS_P1;SDS_P2;PMS_P1;PMS_P2;Temp;Humidity;BMP_temperature;BMP_pressure;BME280_temperature;BME280_humidity;BME280_pressure;Samples;Min_cycle;Max_cycle;Signal;HPM_P1;HPM_P2
2022/03/25 00:00:14;;;;;;;38.43;9.93;;;5.80;99.90;;;;;;5054365;28;20470;-75
2022/03/25 00:02:41;;;;;;;30.80;8.60;;;5.80;1.00;;;;;;5054150;28;20548;-75
2022/03/25 00:05:07;;;;;;;27.80;9.60;;;;;;;;;;5053722;28;20426;-75
2022/03/25 00:07:41;;;;;;;24.23;9.20;;;;;;;;;;5054488;28;20415;-75
2022/03/25 00:10:08;;;;;;;33.80;9.63;;;;;;;;;;5053824;28;20401;-75
2022/03/25 00:12:35;;;;;;;36.27;10.67;;;;;;;;;;5053487;28;20437;-75
2022/03/25 00:15:01;;;;;;;24.80;9.17;;;;;;;;;;5054402;28;20457;-73
2022/03/25 00:17:27;;;;;;;39.30;10.70;;;;;;;;;;5059090;28;20939;-73
2022/03/25 00:19:53;;;;;;;22.97;9.43;;;;;;;;;;5072005;28;20547;-73
2022/03/25 00:22:20;;;;;;;26.80;9.53;;;;;;;;;;5061619;28;20808;-73
2022/03/25 00:24:46;;;;;;;29.90;9.67;;;;;;;;;;5058768;28;20429;-73
2022/03/25 00:27:12;;;;;;;44.00;9.93;;;;;;;;;;5061957;28;20843;-73
2022/03/25 00:29:38;;;;;;;28.07;9.27;;;;;;;;;;5071732;28;20483;-73
2022/03/25 00:32:05;;;;;;;30.73;10.87;;;;;;;;;;5061653;28;20421;-75
2022/03/25 00:34:47;;;;;;;20.77;8.87;;;;;;;;;;5053704;28;20501;-75
2022/03/25 00:37:17;;;;;;;27.00;9.80;;;;;;;;;;5061993;28;20448;-75
2022/03/25 00:39:47;;;;;;;38.47;9.50;;;;;;;;;;5060482;28;20449;-75
2022/03/25 00:42:16;;;;;;;33.70;10.53;;;;;;;;;;5051189;28;20418;-75
2022/03/25 00:44:42;;;;;;;28.47;11.10;;;;;;;;;;5065961;28;20481;-75
2022/03/25 00:47:09;;;;;;;36.07;10.67;;;;;;;;;;5073579;28;20742;-75
2022/03/25 00:49:35;;;;;;;26.73;9.53;;;;;;;;;;5063786;28;20890;-75
2022/03/25 00:52:05;;;;;;;37.63;10.93;;;;;;;;;;5055883;28;20443;-75
2022/03/25 00:54:31;;;;;;;30.67;9.80;;;;;;;;;;5067507;28;20432;-75
2022/03/25 00:56:58;;;;;;;26.30;10.63;;;;;;;;;;5071628;28;20432;-75
2022/03/25 00:59:35;;;;;;;30.63;10.57;;;;;;;;;;5063460;28;20458;-75
2022/03/25 01:02:01;;;;;;;27.80;10.10;;;;;;;;;;5071789;28;20942;-73
2022/03/25 01:04:28;;;;;;;26.03;10.27;;;;;;;;;;5068238;28;20908;-73
2022/03/25 01:06:54;;;;;;;33.83;10.40;;;;;;;;;;5073044;28;20495;-73
2022/03/25 01:09:20;;;;;;;28.60;10.77;;;;;;;;;;5060782;28;20433;-73
2022/03/25 01:11:46;;;;;;;35.37;11.77;;;;;;;;;;5068761;28;20790;-73
2022/03/25 01:14:13;;;;;;;37.37;12.73;;;;;;;;;;5064633;28;20439;-73
2022/03/25 01:16:39;;;;;;;43.10;11.57;;;6.00;1.00;;;;;;5069876;28;20414;-73
2022/03/25 01:19:05;;;;;;;37.60;10.40;;;;;;;;;;5062360;28;20504;-73
2022/03/25 01:21:35;;;;;;;45.47;12.60;;;;;;;;;;5069048;28;20409;-73
2022/03/25 01:24:02;;;;;;;28.90;10.80;;;;;;;;;;5067776;28;20463;-73
2022/03/25 01:26:28;;;;;;;40.87;12.33;;;;;;;;;;5067827;28;20428;-73
2022/03/25 01:28:54;;;;;;;31.53;11.00;;;;;;;;;;5063063;28;20421;-73
2022/03/25 01:31:21;;;;;;;36.60;12.10;;;;;;;;;;5059779;28;20420;-73
2022/03/25 01:33:47;;;;;;;38.60;11.53;;;;;;;;;;5066544;28;20429;-73
2022/03/25 01:36:13;;;;;;;29.57;10.73;;;;;;;;;;5063251;28;20447;-73
2022/03/25 01:38:39;;;;;;;28.93;10.17;;;;;;;;;;5066724;28;20429;-73
2022/03/25 01:41:11;;;;;;;34.23;11.07;;;;;;;;;;5076573;28;20461;-73
2022/03/25 01:43:37;;;;;;;28.90;10.37;;;;;;;;;;5058832;28;20558;-73
2022/03/25 01:46:11;;;;;;;28.40;10.00;;;;;;;;;;5073328;28;20413;-75
2022/03/25 01:48:37;;;;;;;30.90;10.47;;;;;;;;;;5056588;28;20516;-75
2022/03/25 01:51:03;;;;;;;24.80;9.23;;;;;;;;;;5056643;28;20406;-75
2022/03/25 01:53:35;;;;;;;42.57;12.07;;;;;;;;;;5056277;28;20873;-75
2022/03/25 01:56:05;;;;;;;25.17;9.37;;;;;;;;;;5061474;28;20490;-75
2022/03/25 01:58:32;;;;;;;36.97;11.67;;;;;;;;;;5049223;28;20409;-75
2022/03/25 02:01:00;;;;;;;26.87;11.23;;;;;;;;;;5070469;28;20544;-75
2022/03/25 02:03:26;;;;;;;26.53;10.17;;;;;;;;;;5063950;28;20923;-75
2022/03/25 02:05:52;;;;;;;35.70;11.50;;;;;;;;;;5063426;28;20406;-75
2022/03/25 02:08:29;;;;;;;28.73;12.10;;;;;;;;;;5072425;28;20428;-75
2022/03/25 02:10:59;;;;;;;21.73;9.80;;;;;;;;;;5069948;28;20511;-75
2022/03/25 02:13:26;;;;;;;36.43;11.70;;;;;;;;;;5059968;28;20448;-75
2022/03/25 02:15:53;;;;;;;32.83;10.57;;;;;;;;;;5070228;28;20447;-75
2022/03/25 02:18:20;;;;;;;30.60;11.27;;;;;;;;;;5076233;28;20421;-73
2022/03/25 02:20:47;;;;;;;25.70;10.57;;;;;;;;;;5072366;28;20792;-73
2022/03/25 02:23:14;;;;;;;38.80;11.50;;;;;;;;;;5066358;28;20433;-73
2022/03/25 02:25:42;;;;;;;32.03;12.80;;;5.50;1.00;;;;;;5068543;28;20437;-73
2022/03/25 02:28:09;;;;;;;37.43;12.70;;;;;;;;;;5075859;28;20892;-73
2022/03/25 02:30:35;;;;;;;36.27;11.13;;;;;;;;;;5067045;28;20460;-73
2022/03/25 02:33:02;;;;;;;31.20;11.60;;;;;;;;;;5076221;28;20799;-75
2022/03/25 02:35:38;;;;;;;41.87;12.20;;;;;;;;;;5057303;28;20446;-75
2022/03/25 02:38:05;;;;;;;36.13;12.97;;;;;;;;;;5055805;28;20421;-75
2022/03/25 02:40:47;;;;;;;28.70;13.00;;;;;;;;;;5062141;28;20944;-75
2022/03/25 02:43:14;;;;;;;36.47;13.97;;;;;;;;;;5042446;28;20406;-75
2022/03/25 02:45:40;;;;;;;32.30;11.40;;;;;;;;;;5055294;28;20414;-75
2022/03/25 02:48:11;;;;;;;32.30;11.47;;;;;;;;;;5069056;28;20417;-75
2022/03/25 02:50:41;;;;;;;27.20;9.97;;;;;;;;;;5060528;28;20546;-75
2022/03/25 02:53:08;;;;;;;29.00;11.57;;;;;;;;;;5060184;28;20409;-75
2022/03/25 02:55:35;;;;;;;38.10;13.97;;;;;;;;;;5059663;28;20410;-75
2022/03/25 02:58:05;;;;;;;43.37;16.30;;;;;;;;;;5055334;28;20410;-75
2022/03/25 03:00:31;;;;;;;42.83;15.43;;;;;;;;;;5067547;28;20537;-75
2022/03/25 03:03:00;;;;;;;47.83;16.47;;;;;;;;;;5060639;28;20409;-73
2022/03/25 03:05:29;;;;;;;30.57;11.43;;;;;;;;;;5058699;28;20421;-73
2022/03/25 03:07:56;;;;;;;40.60;12.27;;;;;;;;;;5064229;28;20448;-73
2022/03/25 03:10:22;;;;;;;30.00;12.37;;;;;;;;;;5059636;28;20449;-73
2022/03/25 03:12:49;;;;;;;34.27;14.07;;;;;;;;;;5063726;28;20889;-73
2022/03/25 03:15:18;;;;;;;40.73;14.90;;;;;;;;;;5058843;28;20916;-73
2022/03/25 03:17:47;;;;;;;47.40;15.67;;;;;;;;;;5067216;28;20454;-73
2022/03/25 03:20:18;;;;;;;35.53;15.20;;;;;;;;;;5073330;28;20452;-73
2022/03/25 03:22:44;;;;;;;49.13;15.30;;;;;;;;;;5065800;28;20550;-73
2022/03/25 03:25:11;;;;;;;67.10;15.95;;;;;;;;;;5070730;28;20427;-73
2022/03/25 03:27:37;;;;;;;41.40;16.13;;;;;;;;;;5068898;28;20294;-73
2022/03/25 03:30:05;;;;;;;35.50;13.90;;;4.80;1.00;;;;;;5073935;28;20409;-73
2022/03/25 03:32:31;;;;;;;29.70;10.50;;;;;;;;;;5070062;28;20440;-73
2022/03/25 03:34:57;;;;;;;30.13;12.60;;;;;;;;;;5055516;28;20972;-73
2022/03/25 03:37:24;;;;;;;36.03;15.17;;;;;;;;;;5064336;28;20971;-73
2022/03/25 03:39:51;;;;;;;36.70;15.60;;;;;;;;;;5074448;28;20936;-73
2022/03/25 03:42:17;;;;;;;38.37;15.70;;;;;;;;;;5069619;28;20425;-73
2022/03/25 03:44:43;;;;;;;41.63;15.87;;;;;;;;;;5054348;28;20445;-73
2022/03/25 03:47:10;;;;;;;50.03;18.20;;;;;;;;;;5054372;28;20453;-73
2022/03/25 03:49:37;;;;;;;37.70;15.47;;;;;;;;;;5054077;28;20442;-73
2022/03/25 03:52:04;;;;;;;35.57;15.70;;;4.50;1.00;;;;;;5054145;28;20504;-73
2022/03/25 03:54:31;;;;;;;47.05;16.00;;;;;;;;;;5053555;28;20430;-73
2022/03/25 03:56:57;;;;;;;48.72;17.45;;;;;;;;;;5054001;28;20509;-73
2022/03/25 03:59:23;;;;;;;31.60;15.03;;;;;;;;;;5054046;28;20628;-73
2022/03/25 04:01:49;;;;;;;39.67;16.40;;;;;;;;;;5054051;28;20764;-73
2022/03/25 04:04:17;;;;;;;39.37;15.27;;;;;;;;;;5053554;28;20885;-73
2022/03/25 04:06:44;;;;;;;34.20;16.05;;;4.20;1.00;;;;;;5059038;28;20430;-73
2022/03/25 04:09:10;;;;;;;41.43;16.57;;;;;;;;;;5068298;28;20195;-73
2022/03/25 04:11:37;;;;;;;43.15;17.30;;;;;;;;;;5054667;28;20422;-73
2022/03/25 04:14:03;;;;;;;40.77;16.40;;;;;;;;;;5065135;28;20641;-73
2022/03/25 04:16:30;;;;;;;39.20;16.77;;;4.10;1.00;;;;;;5060300;28;20433;-73
2022/03/25 04:18:58;;;;;;;43.17;16.40;;;4.00;1.00;;;;;;5072656;28;20298;-75
2022/03/25 04:21:25;;;;;;;51.60;17.75;;;;;;;;;;5058727;28;20869;-75
2022/03/25 04:23:51;;;;;;;43.72;17.75;;;;;;;;;;5065339;28;20221;-75
2022/03/25 04:26:17;;;;;;;45.35;17.98;;;;;;;;;;5055526;28;20630;-75
2022/03/25 04:28:43;;;;;;;40.22;17.08;;;;;;;;;;5066454;28;20183;-75
2022/03/25 04:31:09;;;;;;;42.72;17.60;;;;;;;;;;5060624;28;20191;-75
2022/03/25 04:33:36;;;;;;;43.67;18.58;;;;;;;;;;5065432;28;20639;-75
2022/03/25 04:36:02;;;;;;;52.95;18.13;;;;;;;;;;5056320;28;20194;-75
2022/03/25 04:38:35;;;;;;;43.70;17.88;;;;;;;;;;5061990;28;20202;-75
2022/03/25 04:41:02;;;;;;;46.40;17.87;;;;;;;;;;5058389;28;20211;-75
2022/03/25 04:43:29;;;;;;;37.50;15.20;;;;;;;;;;5062557;28;20413;-75
2022/03/25 04:45:55;;;;;;;48.70;19.02;;;;;;;;;;5062626;28;20231;-75
2022/03/25 04:48:21;;;;;;;43.03;17.33;;;;;;;;;;5053555;28;20176;-73
2022/03/25 04:50:47;;;;;;;44.63;18.50;;;;;;;;;;5052871;28;21008;-73
2022/03/25 04:53:13;;;;;;;39.92;17.67;;;;;;;;;;5033671;28;20623;-73
2022/03/25 04:55:39;;;;;;;37.88;16.90;;;;;;;;;;5042783;28;20618;-73
2022/03/25 04:58:06;;;;;;;39.40;17.42;;;;;;;;;;5053410;28;20187;-73
2022/03/25 05:00:32;;;;;;;69.20;19.38;;;;;;;;;;5052872;28;20190;-73
2022/03/25 05:02:58;;;;;;;34.40;16.38;;;;;;;;;;5053694;28;20156;-75
2022/03/25 05:05:31;;;;;;;46.42;17.70;;;;;;;;;;5053423;28;20237;-75
2022/03/25 05:07:57;;;;;;;45.35;16.60;;;;;;;;;;5068631;28;20536;-75
2022/03/25 05:10:23;;;;;;;41.08;17.35;;;;;;;;;;5059195;28;20192;-75
2022/03/25 05:12:53;;;;;;;49.72;18.48;;;;;;;;;;5057329;28;20171;-75
2022/03/25 05:15:19;;;;;;;45.30;18.03;;;;;;;;;;5059594;28;20549;-75
2022/03/25 05:17:48;;;;;;;51.13;19.52;;;;;;;;;;5063723;28;20433;-74
2022/03/25 05:20:15;;;;;;;34.05;15.63;;;3.70;1.00;;;;;;5062684;28;20265;-75
2022/03/25 05:22:42;;;;;;;47.17;16.35;;;;;;;;;;5060180;28;20596;-75
2022/03/25 05:25:09;;;;;;;42.78;17.88;;;;;;;;;;5061171;28;20178;-75
2022/03/25 05:27:45;;;;;;;41.17;17.77;;;;;;;;;;5063850;28;20182;-75
2022/03/25 05:30:12;;;;;;;39.38;16.42;;;;;;;;;;5060690;28;20186;-75
2022/03/25 05:32:47;;;;;;;36.28;16.90;;;;;;;;;;5066189;28;20160;-75
2022/03/25 05:35:18;;;;;;;45.53;16.33;;;;;;;;;;5057880;28;20190;-75
2022/03/25 05:37:44;;;;;;;41.63;17.73;;;;;;;;;;5069240;28;20655;-75
2022/03/25 05:40:10;;;;;;;75.80;20.10;;;;;;;;;;5046855;28;20277;-75
2022/03/25 05:42:41;;;;;;;53.90;19.73;;;;;;;;;;5050159;28;20179;-75
2022/03/25 05:45:11;;;;;;;61.57;20.30;;;;;;;;;;5056438;28;20623;-75
2022/03/25 05:47:38;;;;;;;46.73;18.43;;;;;;;;;;5055153;28;20925;-75
2022/03/25 05:50:06;;;;;;;43.97;17.65;;;4.00;1.00;;;;;;5043763;28;20452;-75
2022/03/25 05:52:32;;;;;;;40.20;17.08;;;;;;;;;;5056813;28;20163;-75
2022/03/25 05:54:58;;;;;;;40.30;17.27;;;;;;;;;;5056128;28;20626;-75
2022/03/25 05:57:24;;;;;;;44.30;17.80;;;;;;;;;;5056515;28;20519;-75
2022/03/25 05:59:50;;;;;;;51.23;18.43;;;;;;;;;;5055986;28;20434;-75
2022/03/25 06:02:17;;;;;;;38.67;17.90;;;;;;;;;;5065565;28;20460;-76
2022/03/25 06:04:44;;;;;;;36.90;17.10;;;;;;;;;;5058988;28;20437;-74
2022/03/25 06:07:12;;;;;;;43.23;16.63;;;;;;;;;;5073706;28;20424;-74
2022/03/25 06:09:38;;;;;;;43.43;17.50;;;;;;;;;;5072255;28;20425;-73
2022/03/25 06:12:06;;;;;;;60.60;19.50;;;;;;;;;;5074857;28;20922;-73
2022/03/25 06:14:32;;;;;;;41.77;13.73;;;;;;;;;;5055993;28;20425;-73
2022/03/25 06:16:58;;;;;;;38.33;17.50;;;;;;;;;;5066994;28;20414;-73
2022/03/25 06:19:24;;;;;;;50.63;17.50;;;;;;;;;;5057302;28;20433;-73
2022/03/25 06:21:51;;;;;;;40.17;18.43;;;;;;;;;;5065599;28;20417;-73
2022/03/25 06:24:17;;;;;;;54.57;14.97;;;;;;;;;;5070548;28;20900;-73
2022/03/25 06:26:44;;;;;;;45.33;13.53;;;;;;;;;;5076040;28;20417;-74
2022/03/25 06:29:10;;;;;;;40.57;14.30;;;;;;;;;;5057533;28;20928;-73
2022/03/25 06:31:36;;;;;;;32.07;12.80;;;;;;;;;;5055250;28;20426;-73
2022/03/25 06:34:03;;;;;;;55.00;13.47;;;;;;;;;;5069534;28;20528;-75
2022/03/25 06:36:30;;;;;;;42.30;12.97;;;;;;;;;;5056344;28;20433;-75
2022/03/25 06:38:59;;;;;;;38.87;12.97;;;;;;;;;;5055928;28;20521;-75
2022/03/25 06:41:29;;;;;;;113.40;19.40;;;;;;;;;;5050278;28;20573;-75
2022/03/25 06:44:01;;;;;;;48.90;13.60;;;;;;;;;;5055420;28;20491;-75
2022/03/25 06:46:27;;;;;;;43.13;13.27;;;;;;;;;;5048399;28;20437;-75
2022/03/25 06:48:53;;;;;;;38.00;14.47;;;;;;;;;;5068877;28;20442;-73
2022/03/25 06:51:19;;;;;;;40.30;13.90;;;;;;;;;;5059499;28;20488;-73
2022/03/25 06:53:47;;;;;;;38.10;14.33;;;;;;;;;;5068817;28;20430;-73
2022/03/25 06:56:13;;;;;;;44.97;14.40;;;;;;;;;;5058839;28;20426;-74
2022/03/25 06:58:40;;;;;;;48.30;14.80;;;;;;;;;;5068844;28;20456;-74
2022/03/25 07:01:12;;;;;;;43.83;14.27;;;;;;;;;;5057365;28;20555;-74
2022/03/25 07:03:41;;;;;;;46.33;14.10;;;;;;;;;;5064145;28;20765;-74
2022/03/25 07:06:09;;;;;;;44.87;14.47;;;7.70;1.00;;;;;;5059617;28;20418;-74
2022/03/25 07:08:36;;;;;;;42.57;15.27;;;;;;;;;;5075253;28;20882;-74
2022/03/25 07:11:02;;;;;;;55.37;15.73;;;;;;;;;;5063702;28;20452;-74
2022/03/25 07:13:28;;;;;;;40.23;14.40;;;;;;;;;;5071762;28;20432;-74
2022/03/25 07:15:55;;;;;;;46.60;15.73;;;;;;;;;;5050163;28;20434;-74
2022/03/25 07:18:21;;;;;;;42.37;14.40;;;;;;;;;;5063362;28;20512;-74
2022/03/25 07:20:47;;;;;;;74.60;18.23;;;;;;;;;;5058674;28;20584;-75
2022/03/25 07:23:13;;;;;;;45.57;17.27;;;;;;;;;;5055104;28;20394;-75
2022/03/25 07:25:39;;;;;;;69.90;18.20;;;;;;;;;;5057145;28;20954;-75
2022/03/25 07:28:05;;;;;;;45.00;17.17;;;;;;;;;;5063953;28;20913;-75
2022/03/25 07:30:32;;;;;;;89.07;20.40;;;;;;;;;;5066543;28;20461;-75
2022/03/25 07:32:58;;;;;;;53.03;17.97;;;;;;;;;;5057258;28;20400;-75
2022/03/25 07:35:24;;;;;;;52.07;17.20;;;;;;;;;;5057898;28;20428;-74
2022/03/25 07:37:50;;;;;;;41.07;16.97;;;;;;;;;;5070533;28;20429;-73
2022/03/25 07:40:17;;;;;;;58.00;18.23;;;;;;;;;;5068456;28;20522;-73
2022/03/25 07:42:44;;;;;;;37.13;15.03;;;10.00;99.90;;;;;;5062896;28;20460;-73
2022/03/25 07:45:13;;;;;;;43.77;17.57;;;;;;;;;;5061705;28;20444;-73
2022/03/25 07:47:43;;;;;;;48.07;17.77;;;;;;;;;;5073729;28;20939;-72
2022/03/25 07:50:23;;;;;;;47.73;18.70;;;10.30;99.90;;;;;;5072150;28;20447;-78
2022/03/25 07:52:50;;;;;;;42.63;17.87;;;10.40;99.90;;;;;;5061046;28;20444;-77
2022/03/25 07:55:19;;;;;;;40.73;17.63;;;;;;;;;;5054082;28;20454;-77
2022/03/25 07:57:46;;;;;;;54.27;18.50;;;;;;;;;;5067670;28;20406;-77
2022/03/25 08:00:12;;;;;;;47.73;18.43;;;;;;;;;;5060424;28;20453;-77
2022/03/25 08:02:50;;;;;;;52.17;19.57;;;10.90;99.90;;;;;;5054242;28;20865;-77
2022/03/25 08:05:16;;;;;;;50.20;18.60;;;;;;;;;;5055926;28;20464;-72
2022/03/25 08:07:49;;;;;;;51.97;20.10;;;;;;;;;;5069544;28;20437;-72
2022/03/25 08:10:17;;;;;;;50.63;18.33;;;11.30;99.90;;;;;;5073839;28;20396;-72
2022/03/25 08:12:44;;;;;;;41.90;17.17;;;11.40;99.90;;;;;;5066744;28;20498;-72
2022/03/25 08:15:11;;;;;;;54.33;18.33;;;;;;;;;;5067217;28;20430;-73
2022/03/25 08:17:55;;;;;;;50.47;18.13;;;;;;;;;;5059829;28;20429;-73
2022/03/25 08:20:22;;;;;;;47.97;19.37;;;11.50;99.90;;;;;;5074243;28;20457;-77
2022/03/25 08:22:48;;;;;;;54.47;19.83;;;;;;;;;;5054033;28;20471;-77
2022/03/25 08:28:09;;;;;;;47.87;19.07;;;;;;;;;;5053639;28;20483;-78
2022/03/25 08:30:35;;;;;;;48.93;19.93;;;;;;;;;;5060396;28;20402;-78
2022/03/25 08:33:18;;;;;;;49.43;19.87;;;;;;;;;;5064482;28;20934;-77
2022/03/25 08:35:45;;;;;;;59.13;20.37;;;11.90;99.90;;;;;;5055398;28;20422;-77
2022/03/25 08:38:11;;;;;;;62.07;21.43;;;12.00;99.90;;;;;;5053736;28;20475;-77
2022/03/25 08:40:38;;;;;;;51.90;19.70;;;;;;;;;;5058315;28;20460;-77
2022/03/25 08:43:05;;;;;;;46.93;19.33;;;12.10;99.90;;;;;;5061251;28;20426;-78
2022/03/25 08:45:35;;;;;;;57.40;20.10;;;;;;;;;;5061179;28;20469;-77
2022/03/25 08:48:02;;;;;;;84.07;22.43;;;;;;;;;;5053387;28;21024;-76
2022/03/25 08:50:28;;;;;;;58.37;19.77;;;;;;;;;;5049214;28;20491;-76
2022/03/25 08:52:56;;;;;;;65.57;20.20;;;;;;;;;;5050252;28;20431;-76
2022/03/25 08:55:22;;;;;;;66.20;20.67;;;;;;;;;;5055163;28;20449;-77
2022/03/25 08:57:49;;;;;;;57.20;21.70;;;;;;;;;;5052086;28;20402;-76
2022/03/25 09:00:16;;;;;;;64.53;21.50;;;;;;;;;;5061114;28;20465;-76
2022/03/25 09:02:43;;;;;;;61.47;21.97;;;;;;;;;;5047742;28;20901;-76
2022/03/25 09:05:10;;;;;;;70.03;23.43;;;12.80;99.90;;;;;;5049012;28;20534;-78
2022/03/25 09:07:37;;;;;;;60.13;21.70;;;;;;;;;;5049462;28;20928;-76
2022/03/25 09:10:06;;;;;;;53.60;19.97;;;;;;;;;;5057081;28;20425;-76
2022/03/25 09:12:33;;;;;;;58.80;22.40;;;;;;;;;;5062898;28;20926;-76
2022/03/25 09:14:59;;;;;;;51.30;21.33;;;;;;;;;;5065801;28;20437;-76
2022/03/25 09:17:25;;;;;;;92.73;24.83;;;;;;;;;;5053315;28;20746;-76
2022/03/25 09:19:51;;;;;;;56.13;22.00;;;;;;;;;;5046839;28;20962;-76
2022/03/25 09:22:17;;;;;;;71.50;21.60;;;;;;;;;;5049764;28;20428;-74
2022/03/25 09:24:43;;;;;;;51.23;20.73;;;;;;;;;;5055000;28;20502;-74
2022/03/25 09:27:10;;;;;;;63.00;21.83;;;;;;;;;;5056501;28;20428;-74
2022/03/25 09:29:36;;;;;;;71.60;22.40;;;;;;;;;;5058952;28;20416;-74
2022/03/25 09:32:02;;;;;;;71.90;22.13;;;;;;;;;;5062854;28;20428;-74
2022/03/25 09:37:12;;;;;;;54.27;20.37;;;;;;;;;;5054688;28;20409;-74
2022/03/25 09:39:39;;;;;;;54.67;21.53;;;;;;;;;;5066387;28;20473;-74
2022/03/25 09:42:05;;;;;;;59.50;22.07;;;;;;;;;;5053076;28;20881;-74
2022/03/25 09:44:32;;;;;;;62.93;23.57;;;;;;;;;;5057493;28;20414;-74
2022/03/25 09:46:58;;;;;;;90.27;25.30;;;;;;;;;;5051836;28;20476;-74
2022/03/25 09:49:24;;;;;;;75.80;24.53;;;;;;;;;;5050441;28;20428;-74
2022/03/25 09:51:50;;;;;;;54.27;21.73;;;;;;;;;;5055631;28;20441;-74
2022/03/25 09:54:16;;;;;;;59.10;22.20;;;14.30;99.90;;;;;;5066469;28;20417;-74
2022/03/25 09:56:43;;;;;;;392.17;47.37;;;;;;;;;;5056249;28;20952;-74
2022/03/25 09:59:09;;;;;;;55.70;21.40;;;14.50;99.90;;;;;;5054591;28;20412;-74
2022/03/25 10:01:36;;;;;;;57.57;21.63;;;;;;;;;;5054796;28;20530;-74
2022/03/25 10:04:02;;;;;;;59.97;21.50;;;;;;;;;;5055784;28;20422;-74
2022/03/25 10:06:29;;;;;;;61.67;23.33;;;;;;;;;;5057913;28;20429;-76
2022/03/25 10:08:56;;;;;;;60.80;22.87;;;14.90;99.90;;;;;;5058131;28;20455;-77
2022/03/25 10:11:22;;;;;;;60.20;23.03;;;;;;;;;;5059264;28;20405;-76
2022/03/25 10:13:50;;;;;;;58.17;23.03;;;;;;;;;;5060997;28;20434;-76
2022/03/25 10:16:31;;;;;;;65.57;23.47;;;;;;;;;;5055905;28;20422;-76
2022/03/25 10:18:58;;;;;;;55.80;21.47;;;;;;;;;;5053762;28;20500;-76
2022/03/25 10:21:24;;;;;;;51.73;22.20;;;;;;;;;;5059644;28;20458;-76
2022/03/25 10:23:51;;;;;;;53.33;22.90;;;;;;;;;;5075226;28;20416;-76
2022/03/25 10:26:17;;;;;;;57.77;21.43;;;;;;;;;;5060613;28;20422;-77
2022/03/25 10:28:45;;;;;;;62.37;22.20;;;;;;;;;;5073759;28;20402;-77
2022/03/25 10:31:16;;;;;;;60.63;23.60;;;15.90;99.90;;;;;;5060634;28;20419;-77
2022/03/25 10:33:54;;;;;;;62.97;23.60;;;;;;;;;;5075039;28;20487;-77
2022/03/25 10:36:23;;;;;;;58.27;23.43;;;;;;;;;;5067371;28;20417;-74
2022/03/25 10:38:52;;;;;;;78.80;24.77;;;16.20;99.90;;;;;;5072598;28;20871;-74
2022/03/25 10:41:20;;;;;;;59.70;23.30;;;16.40;99.90;;;;;;5055459;28;20859;-74
2022/03/25 10:44:00;;;;;;;63.37;24.00;;;16.30;99.90;;;;;;5053905;28;20423;-74
2022/03/25 10:46:32;;;;;;;59.60;22.33;;;16.40;99.90;;;;;;5062173;28;20455;-74
2022/03/25 10:48:58;;;;;;;58.90;23.80;;;;;;;;;;5074055;28;20408;-74
2022/03/25 10:51:25;;;;;;;79.07;25.10;;;;;;;;;;5055628;28;20979;-76
2022/03/25 10:54:01;;;;;;;70.87;24.47;;;;;;;;;;5056282;28;20411;-77
2022/03/25 10:56:27;;;;;;;59.03;22.60;;;;;;;;;;5050368;28;20492;-77
2022/03/25 10:58:54;;;;;;;61.40;23.73;;;;;;;;;;5056249;28;20504;-76
2022/03/25 11:01:20;;;;;;;58.70;23.60;;;;;;;;;;5053331;28;20455;-76
2022/03/25 11:03:49;;;;;;;59.77;24.03;;;;;;;;;;5056591;28;20428;-76
2022/03/25 11:06:17;;;;;;;304.13;39.53;;;;;;;;;;5061882;28;20430;-73
2022/03/25 11:08:43;;;;;;;70.63;24.77;;;;;;;;;;5052492;28;20427;-73
2022/03/25 11:11:09;;;;;;;69.40;23.23;;;;;;;;;;5072159;28;20831;-72
2022/03/25 11:13:35;;;;;;;68.57;23.50;;;;;;;;;;5054329;28;20432;-73
2022/03/25 11:16:04;;;;;;;67.17;24.47;;;;;;;;;;5059593;28;20518;-77
2022/03/25 11:18:32;;;;;;;70.27;25.13;;;;;;;;;;5048340;28;20438;-74
2022/03/25 11:20:58;;;;;;;58.27;23.07;;;;;;;;;;5049013;28;20467;-74
2022/03/25 11:23:30;;;;;;;53.67;23.13;;;17.20;99.90;;;;;;5053690;28;20510;-76
2022/03/25 11:26:19;;;;;;;56.30;23.23;;;17.40;99.90;;;;;;5064623;28;20856;-77
2022/03/25 11:28:45;;;;;;;63.07;24.37;;;;;;;;;;5044141;28;20462;-76
2022/03/25 11:31:11;;;;;;;56.77;24.80;;;;;;;;;;5057026;28;20453;-77
2022/03/25 11:34:10;;;;;;;72.10;24.73;;;17.50;99.90;;;;;;5053724;28;20415;-76
2022/03/25 11:36:45;;;;;;;63.93;24.37;;;17.50;99.90;;;;;;5055004;28;20550;-75
2022/03/25 11:39:21;;;;;;;68.00;23.83;;;;;;;;;;5056956;28;20432;-76
2022/03/25 11:41:47;;;;;;;89.23;25.33;;;17.40;1.00;;;;;;5053740;28;20949;-76
2022/03/25 11:44:16;;;;;;;65.30;23.60;;;;;;;;;;5054157;28;20549;-76
2022/03/25 11:47:02;;;;;;;67.40;25.87;;;;;;;;;;5053964;28;20424;-76
2022/03/25 11:52:18;;;;;;;69.80;24.63;;;;;;;;;;5117935;22;20555;-74
2022/03/25 11:54:44;;;;;;;69.27;25.10;;;;;;;;;;5012640;28;20398;-72
2022/03/25 11:57:34;;;;;;;53.63;24.30;;;18.40;99.90;;;;;;5013945;28;20401;-72
2022/03/25 12:00:02;;;;;;;58.73;24.27;;;;;;;;;;5012949;28;20512;-72
2022/03/25 12:02:32;;;;;;;59.63;25.23;;;;;;;;;;5013910;28;20427;-73
2022/03/25 12:05:25;;;;;;;61.63;23.77;;;18.70;99.90;;;;;;5013982;28;20417;-73
2022/03/25 12:08:21;;;;;;;62.03;24.73;;;18.80;99.90;;;;;;5013747;28;20439;-73
2022/03/25 12:10:49;;;;;;;55.10;23.50;;;;;;;;;;5007647;28;20794;-71
2022/03/25 12:13:51;;;;;;;62.40;25.47;;;19.00;99.90;;;;;;5018732;28;20454;-78
2022/03/25 12:16:36;;;;;;;60.10;24.10;;;;;;;;;;4990445;28;20443;-81
2022/03/25 12:19:04;;;;;;;63.03;24.13;;;;;;;;;;4990823;28;20478;-81
2022/03/25 12:21:39;;;;;;;71.10;24.17;;;;;;;;;;4990324;28;21030;-82
2022/03/25 12:24:30;;;;;;;70.23;24.20;;;19.10;99.90;;;;;;4992273;28;20585;-80
2022/03/25 12:27:05;;;;;;;90.77;26.47;;;19.20;99.90;;;;;;4977536;28;20437;-74
2022/03/25 12:29:35;;;;;;;51.37;23.20;;;;;;;;;;4990488;28;20437;-75
2022/03/25 12:32:09;;;;;;;59.37;24.03;;;19.70;99.90;;;;;;4992437;28;20899;-76
2022/03/25 12:34:40;;;;;;;53.73;23.63;;;;;;;;;;4984694;28;20438;-83
2022/03/25 12:37:13;;;;;;;50.83;22.63;;;19.80;99.90;;;;;;4992630;28;20425;-80
2022/03/25 12:39:40;;;;;;;47.60;22.30;;;;;;;;;;4991937;28;20967;-80
2022/03/25 12:42:13;;;;;;;46.90;20.20;;;;;;;;;;4991718;28;20420;-80
2022/03/25 12:44:39;;;;;;;69.70;24.10;;;;;;;;;;4991982;28;20415;-80
2022/03/25 12:47:06;;;;;;;62.13;23.60;;;;;;;;;;4990845;28;20461;-78
2022/03/25 12:49:32;;;;;;;53.07;22.60;;;19.80;99.90;;;;;;4990911;28;20536;-79
2022/03/25 12:52:01;;;;;;;50.23;21.37;;;19.90;99.90;;;;;;5004594;28;20448;-72
2022/03/25 12:54:30;;;;;;;44.63;18.57;;;;;;;;;;5011724;28;20432;-72
2022/03/25 12:56:58;;;;;;;54.30;22.77;;;;;;;;;;5013342;28;20908;-71
2022/03/25 12:59:30;;;;;;;61.07;23.90;;;;;;;;;;5011172;28;20463;-71
2022/03/25 13:01:57;;;;;;;68.57;24.53;;;;;;;;;;5012812;28;20510;-72
2022/03/25 13:04:32;;;;;;;84.83;23.90;;;;;;;;;;5012242;28;20401;-71
2022/03/25 13:07:15;;;;;;;63.43;21.47;;;20.10;99.90;;;;;;5013817;28;20411;-72
2022/03/25 13:09:56;;;;;;;46.17;20.47;;;19.90;99.90;;;;;;5013454;28;20419;-72
2022/03/25 13:12:33;;;;;;;56.30;22.03;;;19.90;99.90;;;;;;5015367;28;20415;-72
2022/03/25 13:15:00;;;;;;;48.93;21.40;;;;;;;;;;5013156;28;20500;-72
2022/03/25 13:17:46;;;;;;;57.30;22.00;;;;;;;;;;5013407;28;20393;-72
2022/03/25 13:20:24;;;;;;;54.40;22.03;;;20.10;99.90;;;;;;5013030;28;20558;-72
2022/03/25 13:23:05;;;;;;;70.23;24.07;;;20.30;99.90;;;;;;5013450;28;20441;-76
2022/03/25 13:25:36;;;;;;;67.10;23.90;;;;;;;;;;5007242;28;20413;-75
2022/03/25 13:28:06;;;;;;;57.43;22.10;;;20.40;99.90;;;;;;5016399;28;20401;-76
2022/03/25 13:30:37;;;;;;;61.67;21.40;;;20.30;99.90;;;;;;5017225;28;20440;-74
2022/03/25 13:33:09;;;;;;;53.77;21.57;;;20.40;99.90;;;;;;5002274;28;20904;-76
2022/03/25 13:35:38;;;;;;;57.83;23.13;;;20.30;99.90;;;;;;5013549;28;20417;-76
2022/03/25 13:38:11;;;;;;;56.83;22.17;;;20.20;99.90;;;;;;5017469;28;20420;-75
2022/03/25 13:40:41;;;;;;;82.90;24.43;;;20.20;99.90;;;;;;5016659;28;20546;-75
2022/03/25 13:43:12;;;;;;;48.73;21.60;;;;;;;;;;5016303;28;20422;-77
2022/03/25 13:45:39;;;;;;;50.00;21.80;;;;;;;;;;5016951;28;20922;-75
2022/03/25 13:48:10;;;;;;;80.43;23.87;;;;;;;;;;5015729;28;20749;-76
2022/03/25 13:50:53;;;;;;;52.00;20.87;;;20.20;99.90;;;;;;5016987;28;20443;-76
2022/03/25 13:53:35;;;;;;;46.97;20.13;;;20.20;99.90;;;;;;5016943;28;20415;-70
2022/03/25 13:56:21;;;;;;;47.17;20.50;;;;;;;;;;5016317;28;20421;-70
2022/03/25 13:58:52;;;;;;;54.60;19.57;;;20.30;99.90;;;;;;5016642;28;20397;-70
2022/03/25 14:01:31;;;;;;;46.07;20.23;;;20.40;99.90;;;;;;5016311;28;20419;-70
2022/03/25 14:04:03;;;;;;;45.20;20.43;;;;;;;;;;5016269;28;20422;-70
2022/03/25 14:06:53;;;;;;;50.40;20.73;;;20.40;99.90;;;;;;5015311;28;20457;-70
2022/03/25 14:09:25;;;;;;;48.40;20.10;;;;;;;;;;5016832;28;20400;-70
2022/03/25 14:11:51;;;;;;;54.30;20.87;;;;;;;;;;5016260;28;20397;-70
2022/03/25 14:14:29;;;;;;;50.47;20.30;;;20.50;99.90;;;;;;5034596;28;20416;-70